Time;durP1;ratioP1;P1;durP2;ratioP2;P2;SDS_P1;SDS_P2;PMS_P1;PMS_P2;Temp;Humidity;BMP_temperature;BMP_pressure;BME280_temperature;BME280_humidity;BME280_pressure;Samples;Min_cycle;Max_cycle;Signal;HPM_P1;HPM_P2
2021/01/31 00:01:01;;;;;;;16.67;4.20;;;;;;;-4.88;74.13;97683.52;2178843;81;21150;-65
2021/01/31 00:04:04;;;;;;;19.95;4.53;;;;;;;-4.89;74.28;97690.78;2178322;81;21562;-65
2021/01/31 00:07:06;;;;;;;18.50;4.37;;;;;;;-4.92;74.17;97688.72;2178573;81;21297;-65
2021/01/31 00:10:08;;;;;;;18.70;4.78;;;;;;;-4.96;74.07;97696.03;2178664;81;21321;-65
2021/01/31 00:13:10;;;;;;;21.95;6.05;;;;;;;-4.95;74.26;97696.45;2178771;82;21280;-64
2021/01/31 00:16:12;;;;;;;21.95;6.10;;;;;;;-4.90;74.90;97702.31;2178587;81;21273;-65
2021/01/31 00:19:14;;;;;;;27.32;7.55;;;;;;;-4.88;73.92;97701.88;2178817;81;21311;-65
2021/01/31 00:22:17;;;;;;;;;;;;;;;-4.88;74.68;97709.10;2181142;81;21289;-66
2021/01/31 00:25:19;;;;;;;26.63;6.97;;;;;;;-4.90;73.99;97701.04;2178708;82;20134;-65
2021/01/31 00:28:21;;;;;;;31.50;8.25;;;;;;;-4.91;74.25;97697.65;2178890;81;21413;-65
2021/01/31 00:31:24;;;;;;;27.13;6.87;;;;;;;-4.93;74.60;97703.23;2178550;81;21311;-65
2021/01/31 00:34:26;;;;;;;42.70;11.45;;;;;;;-4.94;73.99;97713.05;2178512;82;21614;-65
2021/01/31 00:37:28;;;;;;;31.87;9.20;;;;;;;-4.95;74.94;97711.35;2178569;82;21292;-65
2021/01/31 00:40:30;;;;;;;33.33;9.08;;;;;;;-4.99;74.31;97723.78;2178795;81;21714;-66
2021/01/31 00:43:32;;;;;;;31.65;7.75;;;;;;;-5.01;74.78;97720.41;2179007;81;21276;-65
2021/01/31 00:46:34;;;;;;;26.93;7.12;;;;;;;-5.03;74.46;97717.02;2178556;81;21725;-65
2021/01/31 00:49:37;;;;;;;30.88;8.53;;;;;;;-5.03;74.44;97719.58;2178391;82;21312;-65
2021/01/31 00:52:40;;;;;;;29.30;7.40;;;;;;;-5.03;74.68;97725.14;2178540;81;21716;-65
2021/01/31 00:55:43;;;;;;;30.45;8.20;;;;;;;-4.99;74.65;97721.67;2178431;81;21310;-67
2021/01/31 00:58:46;;;;;;;29.50;8.13;;;;;;;-4.97;74.39;97722.06;2178395;81;21296;-67
2021/01/31 01:01:48;;;;;;;32.93;8.78;;;;;;;-4.95;74.15;97723.31;2178595;81;21288;-68
2021/01/31 01:04:50;;;;;;;31.17;7.65;;;;;;;-4.93;74.51;97720.28;2179015;82;21292;-67
2021/01/31 01:07:52;;;;;;;33.80;7.83;;;;;;;-4.96;74.26;97713.49;2178766;82;21698;-67
2021/01/31 01:10:55;;;;;;;30.23;7.60;;;;;;;-5.00;74.07;97720.80;2178706;82;21163;-64
2021/01/31 01:13:57;;;;;;;24.60;6.45;;;;;;;-5.04;74.21;97723.03;2178494;81;21273;-65
2021/01/31 01:16:59;;;;;;;31.50;7.17;;;;;;;-5.07;74.12;97721.36;2178887;82;21120;-65
2021/01/31 01:20:01;;;;;;;26.95;7.20;;;;;;;-5.05;74.09;97726.45;2178612;81;21280;-65
2021/01/31 01:23:04;;;;;;;23.80;5.95;;;;;;;-5.05;74.45;97723.88;2178552;81;21261;-65
2021/01/31 01:26:06;;;;;;;23.85;5.67;;;;;;;-5.08;74.04;97731.16;2178764;81;21708;-65
2021/01/31 01:29:08;;;;;;;18.82;4.58;;;;;;;-5.09;74.06;97722.24;2178641;81;21325;-65
2021/01/31 01:32:10;;;;;;;16.40;3.92;;;;;;;-5.09;72.89;97723.52;2178977;81;21281;-65
2021/01/31 01:35:12;;;;;;;19.30;4.20;;;;;;;-5.07;72.94;97727.75;2178804;81;21268;-65
2021/01/31 01:38:14;;;;;;;16.87;3.60;;;;;;;-5.11;72.78;97723.55;2178648;81;21720;-65
2021/01/31 01:41:16;;;;;;;13.85;3.67;;;;;;;-5.10;73.00;97720.55;2178736;82;21265;-65
2021/01/31 01:44:18;;;;;;;18.57;4.20;;;;;;;-5.16;73.62;97721.93;2178932;81;21183;-65
2021/01/31 01:47:21;;;;;;;16.48;3.75;;;;;;;-5.20;74.48;97724.12;2178839;81;21131;-65
2021/01/31 01:50:23;;;;;;;14.33;3.95;;;;;;;-5.23;74.28;97721.17;2178689;81;21292;-65
2021/01/31 01:53:25;;;;;;;13.32;3.72;;;;;;;-5.28;73.97;97719.14;2178741;82;21138;-65
2021/01/31 01:56:27;;;;;;;;;;;;;;;-5.27;73.63;97725.50;2181129;81;21796;-64
2021/01/31 01:59:30;;;;;;;14.70;3.33;;;;;;;-5.25;73.25;97728.86;2178863;82;20241;-65
2021/01/31 02:02:32;;;;;;;16.60;3.27;;;;;;;-5.24;72.85;97726.73;2178434;82;21563;-64
2021/01/31 02:05:34;;;;;;;16.97;4.35;;;;;;;-5.22;73.10;97727.98;2178465;81;21269;-65
2021/01/31 02:08:37;;;;;;;15.23;3.83;;;;;;;-5.20;73.40;97721.15;2178933;81;21156;-65
2021/01/31 02:11:39;;;;;;;15.30;3.80;;;;;;;-5.17;73.76;97724.06;2178565;82;21265;-65
2021/01/31 02:14:41;;;;;;;15.75;3.40;;;;;;;-5.17;73.66;97724.94;2178476;82;21276;-65
2021/01/31 02:17:43;;;;;;;14.35;3.72;;;;;;;-5.18;73.57;97727.07;2178972;81;21150;-64
2021/01/31 02:20:45;;;;;;;17.80;3.87;;;;;;;-5.16;73.49;97729.60;2178962;81;21162;-64
2021/01/31 02:23:47;;;;;;;16.73;3.85;;;;;;;-5.16;73.69;97730.44;2178548;81;21095;-65
2021/01/31 02:26:49;;;;;;;17.48;4.67;;;;;;;-5.15;73.78;97732.58;2178930;82;21150;-65
2021/01/31 02:29:51;;;;;;;19.45;4.60;;;;;;;-5.16;73.65;97727.05;2178521;82;21713;-64
2021/01/31 02:32:53;;;;;;;16.97;4.40;;;;;;;-5.17;73.78;97731.73;2178616;81;21285;-65
2021/01/31 02:35:56;;;;;;;14.38;3.87;;;;;;;-5.19;74.16;97731.77;2178671;82;21705;-66
2021/01/31 02:38:58;;;;;;;14.98;3.70;;;;;;;-5.18;73.78;97742.41;2178409;81;21285;-66
2021/01/31 02:42:00;;;;;;;13.95;3.75;;;;;;;-5.18;74.14;97731.35;2178616;82;21701;-67
2021/01/31 02:45:03;;;;;;;15.48;3.50;;;;;;;-5.18;74.31;97732.63;2178396;81;21757;-65
2021/01/31 02:48:05;;;;;;;15.98;4.03;;;;;;;-5.16;74.46;97739.83;2178392;81;21268;-67
2021/01/31 02:51:07;;;;;;;17.57;3.72;;;;;;;-4.98;74.91;97736.98;2178545;81;21292;-66
2021/01/31 02:54:09;;;;;;;13.58;3.55;;;;;;;-4.76;74.76;97736.19;2178693;82;21142;-65
2021/01/31 02:57:12;;;;;;;14.75;3.72;;;;;;;-4.64;74.41;97740.69;2166372;82;21305;-65
2021/01/31 03:00:14;;;;;;;19.30;4.20;;;;;;;-4.63;73.82;97747.05;2161134;82;21592;-65
2021/01/31 03:03:17;;;;;;;14.10;3.27;;;;;;;-4.73;73.57;97743.80;2160989;82;21284;-65
2021/01/31 03:06:19;;;;;;;17.20;4.20;;;;;;;-4.73;73.57;97743.80;2160894;82;21139;-65
2021/01/31 03:09:21;;;;;;;14.20;3.60;;;;;;;-4.83;73.42;97743.55;2138856;82;21733;-64
2021/01/31 03:12:23;;;;;;;17.80;3.75;;;;;;;-4.95;73.74;97752.28;2160985;82;21135;-65
2021/01/31 03:15:25;;;;;;;14.70;3.40;;;;;;;-5.02;73.79;97754.52;2161264;82;21693;-65
2021/01/31 03:18:28;;;;;;;17.02;4.10;;;;;;;-5.13;73.87;97751.28;2161192;82;21725;-65
2021/01/31 03:21:30;;;;;;;;;;;;;;;-5.22;74.16;97753.10;2163556;82;21570;-64
2021/01/31 03:24:33;;;;;;;13.70;3.30;;;;;;;-5.32;74.23;97753.27;2161041;82;20421;-65
2021/01/31 03:27:35;;;;;;;14.10;3.62;;;;;;;-5.42;74.52;97750.83;2161281;82;21269;-65
2021/01/31 03:30:37;;;;;;;17.55;3.55;;;;;;;-5.48;73.95;97753.93;2139923;82;21300;-64
2021/01/31 03:33:39;;;;;;;14.60;3.70;;;;;;;-5.51;74.20;97752.70;2161268;82;21301;-65
2021/01/31 03:36:42;;;;;;;13.03;3.62;;;;;;;-5.52;74.83;97753.11;2161370;82;21285;-65
2021/01/31 03:39:45;;;;;;;17.23;4.33;;;;;;;-5.51;74.89;97757.81;2161364;82;21273;-65
2021/01/31 03:42:47;;;;;;;16.40;4.30;;;;;;;-5.54;74.90;97757.86;2161214;82;21717;-65
2021/01/31 03:45:49;;;;;;;14.10;3.67;;;;;;;-5.59;74.97;97766.84;2161267;82;21682;-64
2021/01/31 03:48:51;;;;;;;22.82;4.55;;;;;;;-5.57;75.14;97760.84;2161604;81;21135;-65
2021/01/31 03:51:53;;;;;;;16.12;3.83;;;;;;;-5.65;75.47;97773.31;2161382;82;21718;-65
2021/01/31 03:54:56;;;;;;;15.90;4.33;;;;;;;-5.62;75.34;97777.10;2161203;82;21265;-67
2021/01/31 03:57:58;;;;;;;18.27;4.28;;;;;;;-5.69;75.48;97780.16;2175378;81;21594;-67
2021/01/31 04:01:00;;;;;;;16.23;3.90;;;;;;;-5.74;75.56;97781.94;2178611;82;21284;-67
2021/01/31 04:04:03;;;;;;;19.82;4.83;;;;;;;-5.81;75.60;97777.77;2178835;81;21161;-67
2021/01/31 04:07:05;;;;;;;18.75;4.40;;;;;;;-5.72;75.76;97781.92;2178859;81;21165;-67
2021/01/31 04:10:07;;;;;;;17.02;4.10;;;;;;;-5.74;75.54;97779.39;2179050;82;21324;-67
2021/01/31 04:13:09;;;;;;;18.90;4.17;;;;;;;-5.90;75.25;97792.78;2178734;81;21733;-67
2021/01/31 04:16:11;;;;;;;16.48;4.47;;;;;;;-6.07;75.41;97787.89;2178588;81;21296;-67
2021/01/31 04:19:13;;;;;;;13.18;3.72;;;;;;;-6.18;75.50;97793.53;2178824;82;21582;-67
2021/01/31 04:22:16;;;;;;;17.73;4.53;;;;;;;-6.25;75.15;97790.19;2178582;81;21261;-66
2021/01/31 04:25:18;;;;;;;15.85;3.85;;;;;;;-6.47;75.81;97798.05;2179030;81;21162;-66
2021/01/31 04:28:20;;;;;;;21.40;4.95;;;;;;;-6.48;75.68;97799.34;2178560;81;21119;-65
2021/01/31 04:31:22;;;;;;;19.57;4.67;;;;;;;-6.45;75.63;97807.84;2178746;81;21717;-64
2021/01/31 04:34:24;;;;;;;21.70;8.50;;;;;;;-6.43;75.53;97801.88;2178811;81;21269;-64
2021/01/31 04:37:26;;;;;;;18.40;5.25;;;;;;;-6.58;75.43;97806.67;2179062;81;21266;-64
2021/01/31 04:40:28;;;;;;;20.15;5.33;;;;;;;-6.72;75.92;97807.64;2178676;81;21313;-64
2021/01/31 04:43:30;;;;;;;19.07;4.58;;;;;;;-6.77;75.97;97816.19;2179013;81;21151;-64
2021/01/31 04:46:32;;;;;;;25.02;7.05;;;;;;;-6.93;74.86;97823.11;2178500;82;21253;-64
2021/01/31 04:49:35;;;;;;;28.60;8.05;;;;;;;-7.18;75.85;97828.37;2178518;81;21155;-64
2021/01/31 04:52:37;;;;;;;25.32;7.12;;;;;;;-7.16;75.90;97830.47;2178747;82;21272;-64
2021/01/31 04:55:40;;;;;;;24.43;8.15;;;;;;;-7.29;75.64;97831.41;2178580;81;21608;-64
2021/01/31 04:58:42;;;;;;;26.30;7.60;;;;;;;-7.45;75.80;97840.39;2161198;81;21151;-64
2021/01/31 05:01:45;;;;;;;27.27;8.25;;;;;;;-7.52;76.08;97837.46;2161139;81;21160;-64
2021/01/31 05:04:47;;;;;;;31.20;11.10;;;;;;;-7.60;76.26;97838.78;2161962;82;21285;-64
2021/01/31 05:07:49;;;;;;;31.55;9.98;;;;;;;-7.67;76.50;97840.90;2161186;82;21199;-64
2021/01/31 05:10:51;;;;;;;26.07;7.60;;;;;;;-7.76;76.17;97844.77;2161273;82;21317;-64
2021/01/31 05:13:53;;;;;;;24.45;7.17;;;;;;;-7.91;75.65;97838.03;2140025;82;21265;-64
2021/01/31 05:16:55;;;;;;;23.52;6.25;;;;;;;-7.99;75.55;97849.93;2161367;82;21310;-64
2021/01/31 05:19:57;;;;;;;22.82;6.87;;;;;;;-8.02;75.82;97845.69;2161108;82;21147;-64
2021/01/31 05:22:59;;;;;;;30.40;8.75;;;;;;;-8.24;75.19;97850.82;2161412;82;21293;-65
2021/01/31 05:26:02;;;;;;;26.27;7.50;;;;;;;-8.51;75.24;97860.63;2161225;82;21309;-65
2021/01/31 05:29:04;;;;;;;41.25;12.28;;;;;;;-8.63;75.24;97865.70;2161319;82;21143;-64
2021/01/31 05:32:06;;;;;;;33.42;10.93;;;;;;;-8.75;75.29;97867.42;2161096;82;21132;-64
2021/01/31 05:35:08;;;;;;;69.32;20.82;;;;;;;-8.93;75.43;97873.75;2160893;82;21163;-66
2021/01/31 05:38:11;;;;;;;;;;;;;;;-9.05;75.44;97888.53;2163521;82;21176;-65
2021/01/31 05:41:13;;;;;;;194.20;63.63;;;;;;;-9.18;75.68;97894.44;2161484;82;20130;-64
2021/01/31 05:44:15;;;;;;;96.47;31.62;;;;;;;-9.35;75.80;97895.64;2161347;82;21261;-65
2021/01/31 05:47:17;;;;;;;75.95;29.32;;;;;;;-9.50;76.25;97897.72;2161330;82;21289;-64
2021/01/31 05:50:19;;;;;;;58.28;19.62;;;;;;;-9.51;76.57;97898.16;2161306;82;21350;-65
2021/01/31 05:53:21;;;;;;;52.98;15.93;;;;;;;-9.48;76.22;97904.50;2161065;82;21147;-66
2021/01/31 05:56:24;;;;;;;57.53;19.60;;;;;;;-9.60;76.44;97909.09;2161183;81;21757;-66
2021/01/31 05:59:26;;;;;;;47.15;15.53;;;;;;;-9.80;76.90;97912.79;2161594;82;21167;-63
2021/01/31 06:02:28;;;;;;;54.38;18.85;;;;;;;-9.95;76.09;97913.56;2161197;82;21317;-66
2021/01/31 06:05:31;;;;;;;33.50;10.25;;;;;;;-10.07;76.21;97918.55;2161104;82;21100;-63
2021/01/31 06:08:33;;;;;;;37.08;11.75;;;;;;;-10.21;76.11;97928.62;2160922;82;21298;-64
2021/01/31 06:11:35;;;;;;;34.27;10.43;;;;;;;-10.28;76.75;97930.25;2161446;82;21301;-64
2021/01/31 06:14:37;;;;;;;35.17;12.13;;;;;;;-10.43;77.00;97926.78;2161139;82;21329;-63
2021/01/31 06:17:40;;;;;;;35.50;12.35;;;;;;;-10.48;77.46;97936.46;2161540;82;21273;-64
2021/01/31 06:20:42;;;;;;;56.77;18.27;;;;;;;-10.51;77.80;97932.63;2161055;82;21270;-63
2021/01/31 06:23:44;;;;;;;38.35;13.70;;;;;;;-10.53;77.74;97941.92;2161521;82;21290;-63
2021/01/31 06:26:46;;;;;;;46.75;15.50;;;;;;;-10.54;77.72;97948.25;2161319;82;21273;-64
2021/01/31 06:29:52;;;;;;;42.43;14.13;;;;;;;-10.58;76.90;97947.79;2160852;82;21287;-65
2021/01/31 06:32:54;;;;;;;83.30;29.85;;;;;;;-10.57;77.02;97955.80;2160909;82;21114;-63
2021/01/31 06:35:56;;;;;;;73.28;26.33;;;;;;;-10.49;77.27;97955.46;2161309;82;21694;-64
2021/01/31 06:38:58;;;;;;;98.20;38.85;;;;;;;-10.65;77.08;97948.98;2161075;82;21179;-64
2021/01/31 06:42:02;;;;;;;62.45;23.83;;;;;;;-10.65;77.08;97948.98;2161363;82;21301;-65
2021/01/31 06:45:05;;;;;;;49.00;16.82;;;;;;;-10.54;77.25;97964.73;2161197;82;21646;-66
2021/01/31 06:48:07;;;;;;;52.90;17.05;;;;;;;-10.51;76.19;97971.09;2161043;82;21625;-65
2021/01/31 06:51:10;;;;;;;66.02;22.30;;;;;;;-10.51;75.84;97966.86;2161035;82;21151;-64
2021/01/31 06:54:12;;;;;;;70.92;24.72;;;;;;;-10.40;76.64;97967.37;2160892;82;21551;-66
2021/01/31 06:57:14;;;;;;;162.75;42.78;;;;;;;-10.32;76.95;97966.99;2145171;81;21288;-66
2021/01/31 07:00:16;;;;;;;130.70;37.93;;;;;;;-10.28;75.79;97977.59;2178912;82;21264;-66
2021/01/31 07:03:19;;;;;;;129.95;36.48;;;;;;;-10.27;75.50;97974.20;2178863;82;21288;-64
2021/01/31 07:06:21;;;;;;;103.58;33.18;;;;;;;-10.13;76.21;97970.52;2178463;82;21264;-65
2021/01/31 07:09:23;;;;;;;112.65;31.97;;;;;;;-9.94;76.27;97968.56;2178566;82;21304;-66
2021/01/31 07:12:25;;;;;;;89.58;27.17;;;;;;;-9.83;75.68;97980.47;2178369;82;21328;-64
2021/01/31 07:15:27;;;;;;;89.62;26.27;;;;;;;-9.74;75.00;97980.52;2178939;81;21444;-66
2021/01/31 07:18:29;;;;;;;101.95;28.85;;;;;;;-9.46;75.57;97981.53;2178631;81;21301;-65
2021/01/31 07:21:32;;;;;;;98.92;31.73;;;;;;;-9.20;74.55;97978.27;2179104;81;21285;-66
2021/01/31 07:24:34;;;;;;;94.47;30.23;;;;;;;-9.19;74.20;97981.25;2178607;82;21594;-67
2021/01/31 07:27:36;;;;;;;73.78;23.77;;;;;;;-9.09;74.67;97983.41;2178878;82;21598;-66
2021/01/31 07:30:38;;;;;;;119.77;36.28;;;;;;;-8.86;74.50;97991.11;2179079;82;21182;-66
2021/01/31 07:33:40;;;;;;;116.20;35.68;;;;;;;-8.74;74.53;97992.40;2178727;82;21705;-65
2021/01/31 07:36:42;;;;;;;124.65;37.23;;;;;;;-8.54;74.34;97990.34;2178915;82;21143;-65
2021/01/31 07:39:45;;;;;;;108.57;36.10;;;;;;;-8.38;74.30;97992.02;2179082;82;21149;-65
2021/01/31 07:42:47;;;;;;;71.17;24.40;;;;;;;-8.10;74.58;97988.23;2178669;82;21760;-64
2021/01/31 07:45:49;;;;;;;97.00;30.08;;;;;;;-7.84;74.44;97995.02;2178577;82;21289;-63
2021/01/31 07:48:51;;;;;;;105.35;35.40;;;;;;;-7.51;74.08;97991.57;2179044;81;21174;-64
2021/01/31 07:51:54;;;;;;;;;;;;;;;-7.26;73.26;97997.88;2180986;81;21316;-64
2021/01/31 07:54:56;;;;;;;164.65;59.60;;;;;;;-7.08;73.32;97998.25;2178601;82;20142;-65
2021/01/31 07:57:58;;;;;;;114.82;42.50;;;;;;;-6.74;73.40;97997.25;2178725;81;21622;-65
2021/01/31 08:01:00;;;;;;;136.05;52.35;;;;;;;-6.32;73.12;98003.82;2178584;82;21256;-65
2021/01/31 08:04:02;;;;;;;92.97;34.45;;;;;;;-6.07;72.41;98004.92;2178829;81;21146;-64
2021/01/31 08:07:05;;;;;;;68.65;30.08;;;;;;;-5.79;72.01;98004.66;2178627;82;21312;-65
2021/01/31 08:10:08;;;;;;;59.33;24.57;;;;;;;-5.60;71.99;98010.03;2178448;81;21296;-65
2021/01/31 08:13:10;;;;;;;64.80;23.92;;;;;;;-5.45;71.30;98006.91;2178822;82;21115;-65
2021/01/31 08:16:12;;;;;;;61.02;21.77;;;;;;;-5.47;71.03;98010.77;2178840;81;21578;-64
2021/01/31 08:19:14;;;;;;;57.93;21.52;;;;;;;-5.44;71.18;98002.23;2178976;81;21305;-65
2021/01/31 08:22:17;;;;;;;64.60;22.73;;;;;;;-5.25;71.31;98003.71;2178591;82;21103;-64
2021/01/31 08:25:20;;;;;;;62.08;24.25;;;;;;;-4.89;71.46;98000.31;2178843;82;21697;-65
2021/01/31 08:28:22;;;;;;;65.62;25.35;;;;;;;-4.54;70.96;98003.30;2178540;81;21265;-64
2021/01/31 08:31:24;;;;;;;96.30;41.60;;;;;;;-4.24;70.67;98007.58;2178741;81;21289;-65
2021/01/31 08:34:27;;;;;;;87.33;38.15;;;;;;;-3.98;70.36;98010.19;2151323;82;21287;-65
2021/01/31 08:37:29;;;;;;;87.65;36.83;;;;;;;-3.71;69.68;98008.89;2178802;81;21595;-65
2021/01/31 08:40:31;;;;;;;84.90;36.33;;;;;;;-3.34;69.59;98010.38;2178788;82;21115;-65
2021/01/31 08:43:34;;;;;;;;;;;;;;;-3.02;68.93;98010.66;2181056;81;21570;-65
2021/01/31 08:46:36;;;;;;;63.10;24.97;;;;;;;-2.68;68.65;98014.68;2179160;82;20145;-65
2021/01/31 08:49:38;;;;;;;58.80;22.80;;;;;;;-2.59;68.00;98010.24;2178506;81;21869;-65
2021/01/31 08:52:40;;;;;;;66.47;24.77;;;;;;;-2.27;67.57;98008.24;2178632;81;21284;-65
2021/01/31 08:55:43;;;;;;;63.83;26.00;;;;;;;-2.27;67.57;98008.24;2179061;82;21272;-65
2021/01/31 08:58:45;;;;;;;74.25;28.67;;;;;;;-2.07;67.01;98002.66;2156217;81;21174;-65
2021/01/31 09:01:47;;;;;;;76.72;28.17;;;;;;;-1.95;66.63;98006.23;2188658;81;21282;-65
2021/01/31 09:04:49;;;;;;;73.85;29.20;;;;;;;-2.01;66.63;98009.38;2188328;81;21720;-65
2021/01/31 09:07:51;;;;;;;75.87;29.20;;;;;;;-2.19;66.67;98013.23;2188655;81;21281;-66
2021/01/31 09:10:53;;;;;;;72.42;30.17;;;;;;;-1.86;66.48;98018.47;2188369;81;21700;-66
2021/01/31 09:13:56;;;;;;;82.35;34.95;;;;;;;-1.75;66.85;98019.90;2188139;81;21318;-66
2021/01/31 09:16:58;;;;;;;76.50;33.42;;;;;;;-1.65;66.63;98020.52;2188325;81;21130;-66
2021/01/31 09:20:00;;;;;;;83.15;33.73;;;;;;;-1.37;66.50;98024.97;2188170;81;21272;-66
2021/01/31 09:23:02;;;;;;;72.72;31.30;;;;;;;-1.38;66.01;98022.44;2188523;81;21277;-66
2021/01/31 09:26:04;;;;;;;79.05;33.28;;;;;;;-1.32;65.84;98013.27;2188202;81;21289;-66
2021/01/31 09:29:06;;;;;;;81.55;33.53;;;;;;;-1.02;65.62;98014.63;2188279;81;21740;-66
2021/01/31 09:32:08;;;;;;;66.53;27.75;;;;;;;-1.01;65.37;98015.03;2188630;81;21276;-66
2021/01/31 09:35:11;;;;;;;61.98;26.80;;;;;;;-0.94;64.50;98010.13;2188305;81;21566;-66
2021/01/31 09:38:13;;;;;;;66.77;27.70;;;;;;;-0.65;64.38;98016.19;2188169;81;21720;-66
2021/01/31 09:41:15;;;;;;;73.25;31.82;;;;;;;-0.49;64.36;98013.55;2188261;81;21264;-66
2021/01/31 09:44:17;;;;;;;80.47;33.60;;;;;;;-0.17;64.01;98016.92;2188434;81;21146;-66
2021/01/31 09:47:20;;;;;;;84.28;36.95;;;;;;;0.12;64.02;98013.42;2188372;81;21277;-66
2021/01/31 09:50:22;;;;;;;;;;;;;;;0.33;63.78;98013.63;2191079;81;21293;-66
2021/01/31 09:53:24;;;;;;;86.28;37.20;;;;;;;0.69;63.38;98010.28;2188136;81;20528;-66
2021/01/31 09:56:27;;;;;;;;;;;;;;;0.92;62.93;98011.23;2190708;81;21725;-66
2021/01/31 09:59:29;;;;;;;86.03;37.20;;;;;;;1.15;62.48;98018.59;2168492;81;20245;-66
2021/01/31 10:02:31;;;;;;;93.95;39.78;;;;;;;1.33;61.94;98016.64;2161539;82;21282;-66
2021/01/31 10:05:33;;;;;;;76.50;34.80;;;;;;;1.63;61.13;98015.59;2140037;82;21262;-66
2021/01/31 10:08:36;;;;;;;81.92;36.70;;;;;;;1.72;61.61;98019.10;2161092;82;21162;-66
2021/01/31 10:11:38;;;;;;;63.00;26.50;;;;;;;1.86;59.44;98018.58;2161346;82;21175;-66
2021/01/31 10:14:41;;;;;;;63.15;25.37;;;;;;;1.38;59.56;98019.91;2160934;82;21567;-66
2021/01/31 10:17:43;;;;;;;62.73;25.57;;;;;;;1.49;61.04;98014.80;2161534;82;21280;-66
2021/01/31 10:20:45;;;;;;;53.75;21.52;;;;;;;1.78;58.94;98021.91;2161167;82;21729;-66
2021/01/31 10:23:48;;;;;;;51.60;22.22;;;;;;;1.59;58.26;98018.72;2161510;82;21301;-66
2021/01/31 10:26:50;;;;;;;53.52;23.27;;;;;;;1.21;56.54;98018.40;2161176;82;21282;-66
2021/01/31 10:29:53;;;;;;;51.58;19.37;;;;;;;0.81;58.04;98019.34;2160660;82;21111;-66
2021/01/31 10:32:55;;;;;;;49.53;19.55;;;;;;;0.90;58.13;98018.17;2161174;82;21158;-66
2021/01/31 10:35:57;;;;;;;;;;;;;;;0.95;60.11;98017.58;2142604;82;21784;-66
2021/01/31 10:39:00;;;;;;;50.20;21.23;;;;;;;1.54;59.85;98015.02;2161454;82;20226;-66
2021/01/31 10:42:02;;;;;;;45.85;19.48;;;;;;;1.85;59.54;98015.59;2139997;82;21277;-66
2021/01/31 10:45:04;;;;;;;45.50;19.17;;;;;;;1.98;59.01;98019.38;2161103;82;21186;-66
2021/01/31 10:48:06;;;;;;;44.55;17.57;;;;;;;2.44;58.73;98012.83;2161061;82;21264;-66
2021/01/31 10:51:08;;;;;;;44.85;19.23;;;;;;;2.91;58.74;98004.81;2161064;82;21615;-67
2021/01/31 10:54:10;;;;;;;43.17;17.40;;;;;;;2.91;57.69;98006.11;2161112;82;21590;-66
2021/01/31 10:57:13;;;;;;;38.88;15.80;;;;;;;3.03;57.59;98009.94;2160918;82;21103;-66
2021/01/31 11:00:15;;;;;;;41.50;16.87;;;;;;;3.11;56.89;98011.72;2161110;82;21713;-66
2021/01/31 11:03:17;;;;;;;35.45;15.13;;;;;;;3.46;57.02;98012.36;2139903;82;21297;-67
2021/01/31 11:06:20;;;;;;;38.50;15.25;;;;;;;3.36;56.61;98011.09;2161160;82;21713;-66
2021/01/31 11:09:22;;;;;;;;;;;;;;;3.39;56.31;98010.95;2163937;82;21285;-67
2021/01/31 11:12:24;;;;;;;36.13;14.57;;;;;;;3.52;55.73;98009.95;2140196;82;20509;-66
2021/01/31 11:15:26;;;;;;;40.40;15.58;;;;;;;3.59;55.67;98010.05;2140026;82;21270;-66
2021/01/31 11:18:29;;;;;;;36.40;14.33;;;;;;;3.64;55.32;98004.22;2161050;82;21154;-66
2021/01/31 11:21:31;;;;;;;36.70;14.38;;;;;;;3.81;55.76;98009.46;2161482;82;21285;-65
2021/01/31 11:24:33;;;;;;;26.82;9.60;;;;;;;4.34;54.92;98003.93;2161050;82;21144;-64
2021/01/31 11:27:35;;;;;;;25.40;8.85;;;;;;;3.96;49.13;98007.06;2161286;82;21290;-64
2021/01/31 11:30:37;;;;;;;28.27;9.43;;;;;;;3.52;50.04;98004.33;2161232;82;21567;-64
2021/01/31 11:33:40;;;;;;;24.37;8.55;;;;;;;2.92;52.24;98003.91;2160998;82;21151;-64
2021/01/31 11:36:42;;;;;;;23.18;7.58;;;;;;;2.59;48.91;98007.02;2160993;82;21155;-64
2021/01/31 11:39:44;;;;;;;26.12;8.18;;;;;;;2.36;51.39;98013.61;2161246;82;21694;-65
2021/01/31 11:42:46;;;;;;;23.80;7.90;;;;;;;2.63;53.27;98010.77;2160984;82;21135;-64
2021/01/31 11:45:48;;;;;;;24.65;8.28;;;;;;;2.65;51.45;98002.04;2161249;82;21300;-65
2021/01/31 11:48:50;;;;;;;24.85;7.67;;;;;;;2.44;49.24;98012.83;2138989;82;21127;-64
2021/01/31 11:51:53;;;;;;;21.93;7.10;;;;;;;2.28;51.80;98006.60;2160963;82;21151;-65
2021/01/31 11:54:55;;;;;;;22.87;6.83;;;;;;;2.43;53.24;98001.64;2161258;82;21281;-64
2021/01/31 11:57:57;;;;;;;22.25;6.47;;;;;;;2.59;48.33;97999.72;2161199;81;21296;-65
2021/01/31 12:00:59;;;;;;;20.43;6.15;;;;;;;2.51;48.42;97992.72;2160938;82;21187;-65
2021/01/31 12:04:02;;;;;;;20.20;5.90;;;;;;;2.32;50.16;97993.47;2161063;82;21286;-65
2021/01/31 12:07:04;;;;;;;20.32;6.00;;;;;;;2.22;51.19;97992.99;2161588;82;21317;-65
2021/01/31 12:10:06;;;;;;;22.93;6.33;;;;;;;2.09;51.08;97991.81;2161511;82;21317;-65
2021/01/31 12:13:08;;;;;;;22.60;6.10;;;;;;;2.14;50.01;97989.03;2161174;82;21279;-64
2021/01/31 12:16:11;;;;;;;20.92;6.03;;;;;;;2.14;48.83;97984.72;2161195;82;21285;-64
2021/01/31 12:19:13;;;;;;;;;;;;;;;1.98;50.62;97981.87;2163635;82;21290;-64
2021/01/31 12:22:15;;;;;;;21.30;6.30;;;;;;;1.97;48.27;97982.80;2161665;82;20138;-64
2021/01/31 12:25:17;;;;;;;20.68;5.87;;;;;;;1.89;48.55;97981.79;2161203;81;21143;-65
2021/01/31 12:28:21;;;;;;;21.15;6.10;;;;;;;1.97;50.28;97978.06;2161106;82;21289;-64
2021/01/31 12:31:23;;;;;;;19.55;5.65;;;;;;;2.13;50.81;97975.73;2161249;82;21178;-65
2021/01/31 12:34:25;;;;;;;20.15;5.50;;;;;;;2.16;48.90;97979.02;2161532;82;21289;-65
2021/01/31 12:37:27;;;;;;;20.37;5.85;;;;;;;2.12;50.77;97970.16;2161656;82;21456;-65
2021/01/31 12:40:29;;;;;;;20.12;5.62;;;;;;;2.15;50.05;97968.73;2140094;82;21304;-64
2021/01/31 12:43:32;;;;;;;22.40;5.83;;;;;;;2.13;49.63;97967.97;2161420;82;21285;-64
2021/01/31 12:46:34;;;;;;;22.35;6.53;;;;;;;2.08;49.45;97966.41;2161299;82;21725;-64
2021/01/31 12:49:36;;;;;;;19.17;5.55;;;;;;;1.87;49.23;97966.80;2161378;82;21706;-64
2021/01/31 12:52:39;;;;;;;21.27;6.53;;;;;;;1.74;49.31;97966.89;2140088;82;21269;-64
2021/01/31 12:55:41;;;;;;;26.25;7.92;;;;;;;1.70;50.77;97961.45;2161591;82;21281;-64
2021/01/31 12:58:43;;;;;;;24.02;7.55;;;;;;;2.23;51.41;97964.92;2161076;81;21151;-65
2021/01/31 13:01:45;;;;;;;23.52;7.50;;;;;;;2.47;51.15;97965.27;2140025;82;21265;-64
2021/01/31 13:04:47;;;;;;;24.27;7.53;;;;;;;2.77;50.97;97965.28;2161160;82;21151;-64
2021/01/31 13:07:50;;;;;;;24.05;7.53;;;;;;;2.80;50.16;97960.86;2161235;82;21288;-64
2021/01/31 13:10:52;;;;;;;25.80;7.62;;;;;;;2.85;50.67;97966.69;2161330;82;21301;-64
2021/01/31 13:13:54;;;;;;;22.90;7.22;;;;;;;3.09;50.64;97961.73;2140130;82;21634;-64
2021/01/31 13:16:56;;;;;;;25.45;8.83;;;;;;;3.23;50.56;97958.97;2161549;82;21293;-64
2021/01/31 13:19:59;;;;;;;26.30;8.50;;;;;;;3.33;48.19;97956.80;2161389;82;21696;-64
2021/01/31 13:23:01;;;;;;;27.07;9.20;;;;;;;3.02;49.64;97959.48;2161296;82;21582;-64
2021/01/31 13:26:03;;;;;;;25.05;8.25;;;;;;;3.12;50.41;97957.70;2161572;82;21273;-64
2021/01/31 13:29:05;;;;;;;21.90;7.00;;;;;;;3.14;49.28;97956.33;2161325;82;21321;-64
2021/01/31 13:32:07;;;;;;;25.32;8.18;;;;;;;2.69;48.23;97959.58;2161076;82;21171;-64
2021/01/31 13:35:09;;;;;;;28.15;9.45;;;;;;;2.66;48.54;97961.44;2161126;82;21099;-64
2021/01/31 13:38:12;;;;;;;26.60;7.85;;;;;;;2.73;49.19;97957.68;2140125;82;21590;-64
2021/01/31 13:41:14;;;;;;;;;;;;;;;2.77;49.14;97955.35;2142422;82;21297;-64
2021/01/31 13:44:17;;;;;;;23.00;7.77;;;;;;;2.80;48.54;97951.33;2161444;82;20139;-64
2021/01/31 13:47:19;;;;;;;26.62;7.85;;;;;;;2.47;49.17;97954.91;2140000;82;21281;-64
2021/01/31 13:50:21;;;;;;;25.77;8.50;;;;;;;2.29;49.51;97953.48;2161479;82;21313;-64
2021/01/31 13:53:23;;;;;;;26.93;8.98;;;;;;;2.24;49.65;97957.56;2161228;81;21691;-64
2021/01/31 13:56:25;;;;;;;30.05;8.75;;;;;;;1.99;49.89;97961.58;2161559;82;21277;-64
2021/01/31 13:59:27;;;;;;;26.90;8.90;;;;;;;1.80;50.07;97966.65;2166898;82;21737;-65
2021/01/31 14:02:30;;;;;;;26.25;8.20;;;;;;;1.62;49.74;97967.36;2178490;81;21594;-64
2021/01/31 14:05:33;;;;;;;23.83;7.67;;;;;;;1.43;50.58;97973.22;2178365;82;21598;-65
2021/01/31 14:08:35;;;;;;;25.75;8.45;;;;;;;1.27;50.03;97966.50;2150747;82;21138;-64